ダカール の空港の天気 - METARとTAF

レオポール・セダール・サンゴール国際空港 ( GOOY / DKR ) - セネガル ダカール
飛行場実況気象(Metar)
観測時間04/24 16:00 GMT (04/24 16:00 UTC)
風向・風速北北西 4m/s
視程10km以上
天気現象
なし
気温24℃
湿度69%
気圧1011hPa
METARGOOY 241600Z 34008KT CAVOK 24/18 Q1011
過去の天気等 Google飛行場航空写真 Wunderground天気予報

過去48時間のMETAR

飛行場予報(TAF)
発表時間: 4/24 11:30 GMT (4/24 11:30 UTC)
予報対象時間: 24日12時 GMT ~ 25日18時 GMT
風向・風速北北西 5m/s
視程10km以上
なし
24日22時 GMT ~ 25日2時 GMT に徐々に
全天の4割程度の雲 雲底高度 240m
25日6時 GMT ~ 25日8時 GMT に徐々に
なし
TAF GOOY 241130Z 2412/2518 34010KT CAVOK
BECMG 2422/2502 SCT008
BECMG 2506/2508 NSC